Buoy 32547

sailwx.info

Track history (hours):
 
Tides and Currents Weather Stations Pressure Air Temp Water Temp Dewpoint Dewpoint Depression Visibility Wind Speed Wind Dir Waves Ship Positions

Drifting buoy 32547

Last reported at 2018-Mar-09 00:00 UTC. Time now 2018-Jun-23 15:32 UTC.
Position S 32°29' W 102°58'.
Warning: this ship's position is months out of date.

Water temperature 25.1 ° C

Date/timePositionNaut miles runAvg speedWind from/ knotsBaromVisibWave heightAir tempDewpointWater temp
2018-Mar-09 00:00S 32°29' W 102°58'0 0.0 25.1
2018-Mar-08 23:00S 32°29' W 102°58'3 3.3 25.2
2018-Mar-08 22:00S 32°30' W 102°55'1 0.1 25.2
2018-Mar-08 16:00S 32°31' W 102°54'0 0.0 25.2
2018-Mar-08 15:00S 32°31' W 102°54'2 1.6 25.2
2018-Mar-08 14:00S 32°32' W 102°53'1 0.6 25.1
2018-Mar-08 13:00S 32°31' W 102°53'1 1.3 25.1
2018-Mar-08 12:00S 32°32' W 102°52'0 0.0 25.1
2018-Mar-08 11:00S 32°32' W 102°52'0 0.0 25.1
2018-Mar-08 10:00S 32°32' W 102°52'1 1.3 25.1
2018-Mar-08 09:00S 32°34' W 102°52'1 0.2 25.2
2018-Mar-08 05:00S 32°34' W 102°51'1 0.6 25.2
2018-Mar-08 04:00S 32°35' W 102°51'0 0.0 -0.0
2018-Mar-08 03:00S 32°35' W 102°51'1 0.4 25.2
2018-Mar-08 01:00S 32°35' W 102°52'1 0.8 25.2
2018-Mar-08 00:00S 32°36' W 102°51'3 2.7 25.2
2018-Mar-07 23:00S 32°38' W 102°53'0 0.0 25.2
2018-Mar-07 17:00S 32°38' W 102°53'0 0.0 25.1
2018-Mar-07 16:00S 32°38' W 102°53'1 0.8 25.1
2018-Mar-07 15:00S 32°38' W 102°54'1 0.8 24.9
2018-Mar-07 14:00S 32°39' W 102°55'1 0.6 24.9
2018-Mar-07 13:00S 32°38' W 102°55'1 0.8 24.9
2018-Mar-07 12:00S 32°39' W 102°55'1 0.5 24.9
2018-Mar-07 10:00S 32°39' W 102°56'1 1.0 24.9
2018-Mar-07 09:00S 32°39' W 102°58'2 0.4 24.9
2018-Mar-07 05:00S 32°38' W 102°59'1 0.5 25.1
2018-Mar-07 04:00S 32°38' W 103°00'1 0.5 25.2
2018-Mar-07 03:00S 32°38' W 103°01'2 1.5 25.4
2018-Mar-07 02:00S 32°38' W 103°02'0 0.0 25.5
2018-Mar-07 01:00S 32°38' W 103°02'1 0.5 25.8
2018-Mar-07 00:00S 32°38' W 103°03'2 1.5 26.1
2018-Mar-06 23:00S 32°38' W 103°05'0 0.0 26.2
2018-Mar-06 21:00S 32°38' W 103°05'2 0.4 26.2
2018-Mar-06 16:00S 32°37' W 103°07'0 0.0 24.9
2018-Mar-06 15:00S 32°37' W 103°07'1 0.8 24.5
2018-Mar-06 14:00S 32°38' W 103°07'1 0.3 24.4
2018-Mar-06 12:00S 32°38' W 103°08'1 1.2 24.4
2018-Mar-06 11:00S 32°37' W 103°09'1 0.5 24.5
2018-Mar-06 10:00S 32°37' W 103°10'1 0.6 24.6
2018-Mar-06 09:00S 32°37' W 103°10'2 0.6 24.6
2018-Mar-06 06:00S 32°35' W 103°10'1 0.8 24.9
2018-Mar-06 05:00S 32°35' W 103°11'1 0.6 24.9
2018-Mar-06 04:00S 32°35' W 103°11'1 0.5 24.9
2018-Mar-06 03:00S 32°35' W 103°11'0 0.0 25.1
2018-Mar-06 02:00S 32°35' W 103°11'1 0.8 25.1
2018-Mar-06 01:00S 32°34' W 103°12'0 0.0 25.3
2018-Mar-06 00:00S 32°34' W 103°12'1 0.8 25.4
2018-Mar-05 23:00S 32°34' W 103°13'0 0.0 25.5
2018-Mar-05 21:00S 32°34' W 103°13'3 0.7 25.5
2018-Mar-05 17:00S 32°31' W 103°14'0 0.0 25.0
2018-Mar-05 16:00S 32°31' W 103°14'1 0.6 24.9
2018-Mar-05 15:00S 32°31' W 103°14'1 0.5 24.9
2018-Mar-05 14:00S 32°31' W 103°14'0 0.0 24.8
2018-Mar-05 13:00S 32°31' W 103°14'0 0.0 24.8
2018-Mar-05 12:00S 32°31' W 103°14'1 0.6 24.8
2018-Mar-05 11:00S 32°30' W 103°14'0 0.0 24.8
2018-Mar-05 10:00S 32°30' W 103°14'0 0.0 24.8
2018-Mar-05 09:00S 32°30' W 103°14'1 0.3 24.8
2018-Mar-05 05:00S 32°29' W 103°15'1 0.6 24.9
2018-Mar-05 04:00S 32°28' W 103°15'0 0.0 25.0
2018-Mar-05 03:00S 32°28' W 103°15'0 0.0 25.1
2018-Mar-05 02:00S 32°28' W 103°15'1 0.5 25.2
2018-Mar-05 01:00S 32°28' W 103°14'1 0.6 25.4
2018-Mar-05 00:00S 32°28' W 103°14'0 0.0 25.4
2018-Mar-04 23:00S 32°28' W 103°14'0 0.0 25.5
2018-Mar-04 22:00S 32°28' W 103°14'0 0.0 25.4
2018-Mar-04 21:00S 32°28' W 103°14'1 0.2 25.4
2018-Mar-04 17:00S 32°27' W 103°15'1 0.3 25.1
2018-Mar-04 15:00S 32°26' W 103°15'1 0.5 25.0
2018-Mar-04 14:00S 32°26' W 103°16'1 0.5 24.9
2018-Mar-04 13:00S 32°26' W 103°15'0 0.0 24.9
2018-Mar-04 12:00S 32°26' W 103°15'1 0.6 24.9
2018-Mar-04 11:00S 32°26' W 103°15'0 0.0 24.9
2018-Mar-04 10:00S 32°26' W 103°15'0 0.0 24.9
2018-Mar-04 09:00S 32°26' W 103°15'0 0.0 24.9
2018-Mar-04 08:00S 32°26' W 103°15'1 0.5 25.0
2018-Mar-04 06:00S 32°26' W 103°14'0 0.0 25.0
2018-Mar-04 05:00S 32°26' W 103°14'0 0.0 25.1
2018-Mar-04 04:00S 32°26' W 103°14'1 0.5 25.1
2018-Mar-04 03:00S 32°26' W 103°13'1 0.6 25.1
2018-Mar-04 02:00S 32°26' W 103°13'1 0.5 25.1
2018-Mar-04 01:00S 32°26' W 103°13'0 0.0 25.2
2018-Mar-04 00:00S 32°26' W 103°13'1 1.2 25.2
2018-Mar-03 23:00S 32°28' W 103°13'0 0.0 25.2
2018-Mar-03 22:00S 32°28' W 103°13'1 0.2 25.3
2018-Mar-03 15:00S 32°28' W 103°14'1 0.3 25.1
2018-Mar-03 13:00S 32°29' W 103°14'1 0.3 25.1
2018-Mar-03 09:00S 32°29' W 103°13'2 0.5 25.0
2018-Mar-03 05:00S 32°31' W 103°11'1 0.8 25.0
2018-Mar-03 04:00S 32°31' W 103°12'1 0.7 25.0
2018-Mar-03 02:00S 32°32' W 103°13'0 0.0 25.1
2018-Mar-03 01:00S 32°32' W 103°13'1 0.5 25.1
2018-Mar-03 00:00S 32°32' W 103°13'1 0.7 25.2
2018-Mar-02 22:00S 32°34' W 103°14'3 0.6 25.1
2018-Mar-02 17:00S 32°34' W 103°17'0 0.0 24.9
2018-Mar-02 16:00S 32°34' W 103°17'1 0.5 24.9
2018-Mar-02 14:00S 32°34' W 103°19'1 0.6 24.8
2018-Mar-02 13:00S 32°34' W 103°19'0 0.0 24.8
2018-Mar-02 12:00S 32°34' W 103°19'1 0.5 24.8
2018-Mar-02 11:00S 32°34' W 103°18'1 1.2 24.8
2018-Mar-02 10:00S 32°35' W 103°19'0 0.0 24.8
2018-Mar-02 09:00S 32°35' W 103°19'2 0.6 24.8
2018-Mar-02 05:00S 32°36' W 103°22'1 0.5 24.9
2018-Mar-02 04:00S 32°36' W 103°22'1 0.5 24.9
2018-Mar-02 03:00S 32°36' W 103°23'0 0.0 25.1
2018-Mar-02 02:00S 32°36' W 103°23'1 0.5 25.1
2018-Mar-02 01:00S 32°36' W 103°23'1 0.8 25.3
2018-Mar-02 00:00S 32°37' W 103°24'1 0.6 25.6
2018-Mar-01 23:00S 32°36' W 103°24'1 0.8 25.8
2018-Mar-01 22:00S 32°37' W 103°25'2 0.3 26.2
2018-Mar-01 16:00S 32°38' W 103°23'1 0.5 24.8
2018-Mar-01 15:00S 32°38' W 103°23'1 0.6 24.7
2018-Mar-01 14:00S 32°38' W 103°23'1 1.3 24.6
2018-Mar-01 13:00S 32°40' W 103°22'0 0.0 24.6
2018-Mar-01 12:00S 32°40' W 103°22'1 1.2 24.6
2018-Mar-01 11:00S 32°41' W 103°22'0 0.0 24.6
2018-Mar-01 10:00S 32°41' W 103°22'2 0.5 24.7
2018-Mar-01 06:00S 32°43' W 103°23'0 0.0 24.6
2018-Mar-01 05:00S 32°43' W 103°23'0 0.0 24.6
2018-Mar-01 04:00S 32°43' W 103°23'0 0.0 24.6
2018-Mar-01 03:00S 32°43' W 103°23'0 0.0 24.7
2018-Mar-01 01:00S 32°43' W 103°23'1 0.5 24.8
2018-Mar-01 00:00S 32°43' W 103°23'0 0.0 24.8
2018-Feb-28 23:00S 32°43' W 103°23'0 0.0 24.8
2018-Feb-28 22:00S 32°43' W 103°23'3 0.7 24.9
2018-Feb-28 17:00S 32°45' W 103°20'1 0.5 24.6
2018-Feb-28 16:00S 32°45' W 103°19'1 0.6 24.6
2018-Feb-28 15:00S 32°46' W 103°19'3 0.3 -0.0
2018-Feb-28 05:00S 32°49' W 103°18'1 0.5 24.8
2018-Feb-28 04:00S 32°49' W 103°17'0 0.0 24.9
2018-Feb-28 03:00S 32°49' W 103°17'1 1.2 24.9
2018-Feb-28 02:00S 32°50' W 103°17'0 0.0 24.9
2018-Feb-28 01:00S 32°50' W 103°17'1 0.5 25.1
2018-Feb-28 00:00S 32°50' W 103°17'2 1.6 25.1
2018-Feb-27 23:00S 32°51' W 103°18'5 0.6 25.1
2018-Feb-27 15:00S 32°55' W 103°22'   24.6
Track history (hours):
 
Tides and Currents Weather Stations Pressure Air Temp Water Temp Dewpoint Dewpoint Depression Visibility Wind Speed Wind Dir Waves Ship Positions

Drifting buoy 32547

Last reported at 2018-Mar-09 00:00 UTC. Time now 2018-Jun-23 15:32 UTC.
Position S 32°29' W 102°58'.
Warning: this ship's position is months out of date.

Water temperature 25.1 ° C

Date/timePositionNaut miles runAvg speedWind from/ knotsBaromVisibWave heightAir tempDewpointWater temp
2018-Mar-09 00:00S 32°29' W 102°58'0 0.0 25.1
2018-Mar-08 23:00S 32°29' W 102°58'3 3.3 25.2
2018-Mar-08 22:00S 32°30' W 102°55'1 0.1 25.2
2018-Mar-08 16:00S 32°31' W 102°54'0 0.0 25.2
2018-Mar-08 15:00S 32°31' W 102°54'2 1.6 25.2
2018-Mar-08 14:00S 32°32' W 102°53'1 0.6 25.1
2018-Mar-08 13:00S 32°31' W 102°53'1 1.3 25.1
2018-Mar-08 12:00S 32°32' W 102°52'0 0.0 25.1
2018-Mar-08 11:00S 32°32' W 102°52'0 0.0 25.1
2018-Mar-08 10:00S 32°32' W 102°52'1 1.3 25.1
2018-Mar-08 09:00S 32°34' W 102°52'1 0.2 25.2
2018-Mar-08 05:00S 32°34' W 102°51'1 0.6 25.2
2018-Mar-08 04:00S 32°35' W 102°51'0 0.0 -0.0
2018-Mar-08 03:00S 32°35' W 102°51'1 0.4 25.2
2018-Mar-08 01:00S 32°35' W 102°52'1 0.8 25.2
2018-Mar-08 00:00S 32°36' W 102°51'3 2.7 25.2
2018-Mar-07 23:00S 32°38' W 102°53'0 0.0 25.2
2018-Mar-07 17:00S 32°38' W 102°53'0 0.0 25.1
2018-Mar-07 16:00S 32°38' W 102°53'1 0.8 25.1
2018-Mar-07 15:00S 32°38' W 102°54'1 0.8 24.9
2018-Mar-07 14:00S 32°39' W 102°55'1 0.6 24.9
2018-Mar-07 13:00S 32°38' W 102°55'1 0.8 24.9
2018-Mar-07 12:00S 32°39' W 102°55'1 0.5 24.9
2018-Mar-07 10:00S 32°39' W 102°56'1 1.0 24.9
2018-Mar-07 09:00S 32°39' W 102°58'2 0.4 24.9
2018-Mar-07 05:00S 32°38' W 102°59'1 0.5 25.1
2018-Mar-07 04:00S 32°38' W 103°00'1 0.5 25.2
2018-Mar-07 03:00S 32°38' W 103°01'2 1.5 25.4
2018-Mar-07 02:00S 32°38' W 103°02'0 0.0 25.5
2018-Mar-07 01:00S 32°38' W 103°02'1 0.5 25.8
2018-Mar-07 00:00S 32°38' W 103°03'2 1.5 26.1
2018-Mar-06 23:00S 32°38' W 103°05'0 0.0 26.2
2018-Mar-06 21:00S 32°38' W 103°05'2 0.4 26.2
2018-Mar-06 16:00S 32°37' W 103°07'0 0.0 24.9
2018-Mar-06 15:00S 32°37' W 103°07'1 0.8 24.5
2018-Mar-06 14:00S 32°38' W 103°07'1 0.3 24.4
2018-Mar-06 12:00S 32°38' W 103°08'1 1.2 24.4
2018-Mar-06 11:00S 32°37' W 103°09'1 0.5 24.5
2018-Mar-06 10:00S 32°37' W 103°10'1 0.6 24.6
2018-Mar-06 09:00S 32°37' W 103°10'2 0.6 24.6
2018-Mar-06 06:00S 32°35' W 103°10'1 0.8 24.9
2018-Mar-06 05:00S 32°35' W 103°11'1 0.6 24.9
2018-Mar-06 04:00S 32°35' W 103°11'1 0.5 24.9
2018-Mar-06 03:00S 32°35' W 103°11'0 0.0 25.1
2018-Mar-06 02:00S 32°35' W 103°11'1 0.8 25.1
2018-Mar-06 01:00S 32°34' W 103°12'0 0.0 25.3
2018-Mar-06 00:00S 32°34' W 103°12'1 0.8 25.4
2018-Mar-05 23:00S 32°34' W 103°13'0 0.0 25.5
2018-Mar-05 21:00S 32°34' W 103°13'3 0.7 25.5
2018-Mar-05 17:00S 32°31' W 103°14'0 0.0 25.0
2018-Mar-05 16:00S 32°31' W 103°14'1 0.6 24.9
2018-Mar-05 15:00S 32°31' W 103°14'1 0.5 24.9
2018-Mar-05 14:00S 32°31' W 103°14'0 0.0 24.8
2018-Mar-05 13:00S 32°31' W 103°14'0 0.0 24.8
2018-Mar-05 12:00S 32°31' W 103°14'1 0.6 24.8
2018-Mar-05 11:00S 32°30' W 103°14'0 0.0 24.8
2018-Mar-05 10:00S 32°30' W 103°14'0 0.0 24.8
2018-Mar-05 09:00S 32°30' W 103°14'1 0.3 24.8
2018-Mar-05 05:00S 32°29' W 103°15'1 0.6 24.9
2018-Mar-05 04:00S 32°28' W 103°15'0 0.0 25.0
2018-Mar-05 03:00S 32°28' W 103°15'0 0.0 25.1
2018-Mar-05 02:00S 32°28' W 103°15'1 0.5 25.2
2018-Mar-05 01:00S 32°28' W 103°14'1 0.6 25.4
2018-Mar-05 00:00S 32°28' W 103°14'0 0.0 25.4
2018-Mar-04 23:00S 32°28' W 103°14'0 0.0 25.5
2018-Mar-04 22:00S 32°28' W 103°14'0 0.0 25.4
2018-Mar-04 21:00S 32°28' W 103°14'1 0.2 25.4
2018-Mar-04 17:00S 32°27' W 103°15'1 0.3 25.1
2018-Mar-04 15:00S 32°26' W 103°15'1 0.5 25.0
2018-Mar-04 14:00S 32°26' W 103°16'1 0.5 24.9
2018-Mar-04 13:00S 32°26' W 103°15'0 0.0 24.9
2018-Mar-04 12:00S 32°26' W 103°15'1 0.6 24.9
2018-Mar-04 11:00S 32°26' W 103°15'0 0.0 24.9
2018-Mar-04 10:00S 32°26' W 103°15'0 0.0 24.9
2018-Mar-04 09:00S 32°26' W 103°15'0 0.0 24.9
2018-Mar-04 08:00S 32°26' W 103°15'1 0.5 25.0
2018-Mar-04 06:00S 32°26' W 103°14'0 0.0 25.0
2018-Mar-04 05:00S 32°26' W 103°14'0 0.0 25.1
2018-Mar-04 04:00S 32°26' W 103°14'1 0.5 25.1
2018-Mar-04 03:00S 32°26' W 103°13'1 0.6 25.1
2018-Mar-04 02:00S 32°26' W 103°13'1 0.5 25.1
2018-Mar-04 01:00S 32°26' W 103°13'0 0.0 25.2
2018-Mar-04 00:00S 32°26' W 103°13'1 1.2 25.2
2018-Mar-03 23:00S 32°28' W 103°13'0 0.0 25.2
2018-Mar-03 22:00S 32°28' W 103°13'1 0.2 25.3
2018-Mar-03 15:00S 32°28' W 103°14'1 0.3 25.1
2018-Mar-03 13:00S 32°29' W 103°14'1 0.3 25.1
2018-Mar-03 09:00S 32°29' W 103°13'2 0.5 25.0
2018-Mar-03 05:00S 32°31' W 103°11'1 0.8 25.0
2018-Mar-03 04:00S 32°31' W 103°12'1 0.7 25.0
2018-Mar-03 02:00S 32°32' W 103°13'0 0.0 25.1
2018-Mar-03 01:00S 32°32' W 103°13'1 0.5 25.1
2018-Mar-03 00:00S 32°32' W 103°13'1 0.7 25.2
2018-Mar-02 22:00S 32°34' W 103°14'3 0.6 25.1
2018-Mar-02 17:00S 32°34' W 103°17'0 0.0 24.9
2018-Mar-02 16:00S 32°34' W 103°17'1 0.5 24.9
2018-Mar-02 14:00S 32°34' W 103°19'1 0.6 24.8
2018-Mar-02 13:00S 32°34' W 103°19'0 0.0 24.8
2018-Mar-02 12:00S 32°34' W 103°19'1 0.5 24.8
2018-Mar-02 11:00S 32°34' W 103°18'1 1.2 24.8
2018-Mar-02 10:00S 32°35' W 103°19'0 0.0 24.8
2018-Mar-02 09:00S 32°35' W 103°19'2 0.6 24.8
2018-Mar-02 05:00S 32°36' W 103°22'1 0.5 24.9
2018-Mar-02 04:00S 32°36' W 103°22'1 0.5 24.9
2018-Mar-02 03:00S 32°36' W 103°23'0 0.0 25.1
2018-Mar-02 02:00S 32°36' W 103°23'1 0.5 25.1
2018-Mar-02 01:00S 32°36' W 103°23'1 0.8 25.3
2018-Mar-02 00:00S 32°37' W 103°24'1 0.6 25.6
2018-Mar-01 23:00S 32°36' W 103°24'1 0.8 25.8
2018-Mar-01 22:00S 32°37' W 103°25'2 0.3 26.2
2018-Mar-01 16:00S 32°38' W 103°23'1 0.5 24.8
2018-Mar-01 15:00S 32°38' W 103°23'1 0.6 24.7
2018-Mar-01 14:00S 32°38' W 103°23'1 1.3 24.6
2018-Mar-01 13:00S 32°40' W 103°22'0 0.0 24.6
2018-Mar-01 12:00S 32°40' W 103°22'1 1.2 24.6
2018-Mar-01 11:00S 32°41' W 103°22'0 0.0 24.6
2018-Mar-01 10:00S 32°41' W 103°22'2 0.5 24.7
2018-Mar-01 06:00S 32°43' W 103°23'0 0.0 24.6
2018-Mar-01 05:00S 32°43' W 103°23'0 0.0 24.6
2018-Mar-01 04:00S 32°43' W 103°23'0 0.0 24.6
2018-Mar-01 03:00S 32°43' W 103°23'0 0.0 24.7
2018-Mar-01 01:00S 32°43' W 103°23'1 0.5 24.8
2018-Mar-01 00:00S 32°43' W 103°23'0 0.0 24.8
2018-Feb-28 23:00S 32°43' W 103°23'0 0.0 24.8
2018-Feb-28 22:00S 32°43' W 103°23'3 0.7 24.9
2018-Feb-28 17:00S 32°45' W 103°20'1 0.5 24.6
2018-Feb-28 16:00S 32°45' W 103°19'1 0.6 24.6
2018-Feb-28 15:00S 32°46' W 103°19'3 0.3 -0.0
2018-Feb-28 05:00S 32°49' W 103°18'1 0.5 24.8
2018-Feb-28 04:00S 32°49' W 103°17'0 0.0 24.9
2018-Feb-28 03:00S 32°49' W 103°17'1 1.2 24.9
2018-Feb-28 02:00S 32°50' W 103°17'0 0.0 24.9
2018-Feb-28 01:00S 32°50' W 103°17'1 0.5 25.1
2018-Feb-28 00:00S 32°50' W 103°17'2 1.6 25.1
2018-Feb-27 23:00S 32°51' W 103°18'5 0.6 25.1
2018-Feb-27 15:00S 32°55' W 103°22'   24.6

Dump ship's entire track history